Time;durP1;ratioP1;P1;durP2;ratioP2;P2;SDS_P1;SDS_P2;PMS_P1;PMS_P2;Temp;Humidity;BMP_temperature;BMP_pressure;BME280_temperature;BME280_humidity;BME280_pressure;Samples;Min_cycle;Max_cycle;Signal;HPM_P1;HPM_P2
2022/07/22 00:01:54;;;;;;;;;;;;;;;;;;5070956;28;1242;-74
2022/07/22 00:04:20;;;;;;;;;;;;;;;;;;5050945;28;1122;-74
2022/07/22 00:06:48;;;;;;;;;;;;;;;;;;5051180;28;1107;-74
2022/07/22 00:09:14;;;;;;;;;;;;;;;;;;5057305;28;1842;-75
2022/07/22 00:11:40;;;;;;;;;;;;;;;;;;5060463;28;1575;-74
2022/07/22 00:14:06;;;;;;;;;;;;;;;;;;5062380;28;1914;-74
2022/07/22 00:16:33;;;;;;;;;;;;;;;;;;5069745;28;1355;-74
2022/07/22 00:18:59;;;;;;;;;;;;;;;;;;5070900;28;1427;-74
2022/07/22 00:21:25;;;;;;;;;;;;;;;;;;5065270;28;1774;-74
2022/07/22 00:23:52;;;;;;;;;;;;;;;;;;5067077;28;1299;-74
2022/07/22 00:26:19;;;;;;;;;;;;;;;;;;5070567;28;1494;-73
2022/07/22 00:28:45;;;;;;;;;;;;;;;;;;5062837;28;1826;-74
2022/07/22 00:31:11;;;;;;;;;;;;;;;;;;5073264;28;1330;-74
2022/07/22 00:33:37;;;;;;;;;;;;;;;;;;5055758;28;1977;-74
2022/07/22 00:36:04;;;;;;;;;;;;;;;;;;5069762;28;1275;-75
2022/07/22 00:38:30;;;;;;;;;;;;;;;;;;5070802;28;1313;-74
2022/07/22 00:40:58;;;;;;;;;;;;;;;;;;5070993;28;777;-75
2022/07/22 00:43:24;;;;;;;;;;;;;;;;;;5070106;28;1078;-74
2022/07/22 00:45:51;;;;;;;;;;;;;;;;;;5062078;28;1797;-74
2022/07/22 00:48:17;;;;;;;;;;;;;;;;;;5070109;28;1423;-73
2022/07/22 00:50:43;;;;;;;;;;;;;;;;;;5069402;28;1251;-74
2022/07/22 00:53:10;;;;;;;;;;;;;;;;;;5066670;28;1977;-75
2022/07/22 00:55:36;;;;;;;;;;;;;;;;;;5068237;28;1716;-74
2022/07/22 00:58:04;;;;;;;;;;;;;;;;;;5069009;28;1388;-73
2022/07/22 01:00:30;;;;;;;;;;;;;;;;;;5069281;28;1461;-74
2022/07/22 01:02:56;;;;;;;;;;;;;;;;;;5069922;28;1126;-74
2022/07/22 01:05:22;;;;;;;;;;;;;;;;;;5060843;28;1778;-75
2022/07/22 01:07:48;;;;;;;;;;;;;;;;;;5068857;28;1352;-74
2022/07/22 01:10:15;;;;;;;;;;;;;;;;;;5067928;28;1822;-74
2022/07/22 01:12:41;;;;;;;;;;;;;;;;;;5067297;28;1914;-74
2022/07/22 01:15:09;;;;;;;;;;;;;;;;;;5070210;28;1157;-75
2022/07/22 01:17:36;;;;;;;;;;;;;;;;;;5070173;28;1330;-74
2022/07/22 01:20:05;;;;;;;;;;;;;;;;;;5067121;28;1785;-75
2022/07/22 01:22:31;;;;;;;;;;;;;;;;;;5060158;28;1185;-74
2022/07/22 01:24:58;;;;;;;;;;;;;;;;;;5069030;28;1319;-74
2022/07/22 01:27:24;;;;;;;;;;;;;;;;;;5068941;28;1322;-74
2022/07/22 01:29:50;;;;;;;;;;;;;;;;;;5068133;28;1840;-74
2022/07/22 01:32:16;;;;;;;;;;;;;;;;;;5059826;28;1979;-74
2022/07/22 01:34:43;;;;;;;;;;;;;;;;;;5066775;28;1862;-74
2022/07/22 01:37:10;;;;;;;;;;;;;;;;;;5059975;28;1643;-73
2022/07/22 01:39:37;;;;;;;;;;;;;;;;;;5068726;28;1280;-73
2022/07/22 01:42:03;;;;;;;;;;;;;;;;;;5067329;28;1773;-73
2022/07/22 01:44:31;;;;;;;;;;;;;;;;;;5068633;28;1347;-74
2022/07/22 01:46:58;;;;;;;;;;;;;;;;;;5068030;28;1795;-74
2022/07/22 01:49:24;;;;;;;;;;;;;;;;;;5068792;28;1405;-73
2022/07/22 01:51:50;;;;;;;;;;;;;;;;;;5068607;28;1329;-74
2022/07/22 01:54:19;;;;;;;;;;;;;;;;;;5064512;28;1918;-74
2022/07/22 01:56:46;;;;;;;;;;;;;;;;;;5059224;28;1290;-75
2022/07/22 01:59:12;;;;;;;;;;;;;;;;;;5072363;28;1427;-74
2022/07/22 02:01:38;;;;;;;;;;;;;;;;;;5071987;28;1219;-74
2022/07/22 02:04:04;;;;;;;;;;;;;;;;;;5071081;28;1835;-73
2022/07/22 02:06:31;;;;;;;;;;;;;;;;;;5073399;28;1153;-74
2022/07/22 02:08:58;;;;;;;;;;;;;;;;;;5072326;28;1396;-74
2022/07/22 02:11:35;;;;;;;;;;;;;;;;;;5072037;28;1658;-73
2022/07/22 02:14:02;;;;;;;;;;;;;;;;;;5062772;28;1961;-73
2022/07/22 02:16:29;;;;;;;;;;;;;;;;;;5072204;28;1230;-74
2022/07/22 02:18:56;;;;;;;;;;;;;;;;;;5072074;28;1422;-74
2022/07/22 02:21:22;;;;;;;;;;;;;;;;;;5071484;28;1529;-73
2022/07/22 02:23:51;;;;;;;;;;;;;;;;;;5071835;28;1360;-73
2022/07/22 02:26:18;;;;;;;;;;;;;;;;;;5071625;28;1402;-73
2022/07/22 02:28:46;;;;;;;;;;;;;;;;;;5064507;28;1779;-73
2022/07/22 02:31:12;;;;;;;;;;;;;;;;;;5071368;28;1134;-74
2022/07/22 02:33:38;;;;;;;;;;;;;;;;;;5071507;28;1974;-75
2022/07/22 02:36:05;;;;;;;;;;;;;;;;;;5065574;28;1838;-74
2022/07/22 02:38:34;;;;;;;;;;;;;;;;;;5071233;28;1497;-73
2022/07/22 02:41:00;;;;;;;;;;;;;;;;;;5071596;28;1188;-73
2022/07/22 02:43:26;;;;;;;;;;;;;;;;;;5069318;28;1787;-73
2022/07/22 02:45:55;;;;;;;;;;;;;;;;;;5067644;28;1562;-73
2022/07/22 02:48:21;;;;;;;;;;;;;;;;;;5060126;28;1623;-72
2022/07/22 02:50:47;;;;;;;;;;;;;;;;;;5058647;28;1554;-74
2022/07/22 02:53:18;;;;;;;;;;;;;;;;;;5066876;28;1910;-76
2022/07/22 02:55:44;;;;;;;;;;;;;;;;;;5068378;28;1906;-74
2022/07/22 02:58:11;;;;;;;;;;;;;;;;;;5071325;28;1679;-72
2022/07/22 03:00:40;;;;;;;;;;;;;;;;;;5071197;28;1475;-73
2022/07/22 03:03:07;;;;;;;;;;;;;;;;;;5068095;28;1553;-73
2022/07/22 03:05:34;;;;;;;;;;;;;;;;;;5067707;28;1594;-73
2022/07/22 03:08:19;;;;;;;;;;;;;;;;;;5062525;28;1553;-74
2022/07/22 03:10:45;;;;;;;;;;;;;;;;;;5065619;28;1919;-75
2022/07/22 03:13:12;;;;;;;;;;;;;;;;;;5051767;28;1918;-73
2022/07/22 03:15:38;;;;;;;;;;;;;;;;;;5070905;28;1494;-73
2022/07/22 03:18:04;;;;;;;;;;;;;;;;;;5070765;28;1420;-73
2022/07/22 03:20:33;;;;;;;;;;;;;;;;;;5071018;28;1383;-74
2022/07/22 03:22:59;;;;;;;;;;;;;;;;;;5084792;22;3716;-77
2022/07/22 03:25:26;;;;;;;;;;;;;;;;;;5072466;28;1672;-77
2022/07/22 03:27:52;;;;;;;;;;;;;;;;;;5073771;28;1476;-77
2022/07/22 03:30:19;;;;;;;;;;;;;;;;;;5084418;28;1413;-77
2022/07/22 03:32:46;;;;;;;;;;;;;;;;;;5069543;28;1805;-78
2022/07/22 03:35:13;;;;;;;;;;;;;;;;;;5076127;28;1546;-78
2022/07/22 03:37:44;;;;;;;;;;;;;;;;;;5074412;28;1588;-79
2022/07/22 03:40:10;;;;;;;;;;;;;;;;;;5063596;28;1552;-77
2022/07/22 03:42:38;;;;;;;;;;;;;;;;;;5068493;28;1531;-78
2022/07/22 03:45:04;;;;;;;;;;;;;;;;;;5066344;28;1650;-76
2022/07/22 03:47:35;;;;;;;;;;;;;;;;;;5073132;28;1515;-78
2022/07/22 03:50:01;;;;;;;;;;;;;;;;;;5065711;28;1585;-78
2022/07/22 03:52:28;;;;;;;;;;;;;;;;;;5084690;28;1672;-78
2022/07/22 03:54:57;;;;;;;;;;;;;;;;;;5070514;28;1918;-76
2022/07/22 03:57:23;;;;;;;;;;;;;;;;;;5091861;28;770;-77
2022/07/22 03:59:59;;;;;;;;;;;;;;;;;;5073487;28;1215;-76
2022/07/22 04:02:25;;;;;;;;;;;;;;;;;;5073425;28;1157;-77
2022/07/22 04:04:51;;;;;;;;;;;;;;;;;;5092013;28;1320;-77
2022/07/22 04:07:18;;;;;;;;;;;;;;;;;;5073372;28;1421;-76
2022/07/22 04:09:44;;;;;;;;;;;;;;;;;;5073539;28;1427;-77
2022/07/22 04:12:12;;;;;;;;;;;;;;;;;;5073056;28;1219;-76
2022/07/22 04:14:58;;;;;;;;;;;;;;;;;;5073327;28;1984;-77
2022/07/22 04:17:24;;;;;;;;;;;;;;;;;;5091107;28;817;-77
2022/07/22 04:19:50;;;;;;;;;;;;;;;;;;5072923;28;1587;-76
2022/07/22 04:22:24;;;;;;;;;;;;;;;;;;5073227;28;1466;-77
2022/07/22 04:24:51;;;;;;;;;;;;;;;;;;5073196;28;1273;-76
2022/07/22 04:27:18;;;;;;;;;;;;;;;;;;5073298;28;1324;-76
2022/07/22 04:29:45;;;;;;;;;;;;;;;;;;5073295;28;1170;-77
2022/07/22 04:32:11;;;;;;;;;;;;;;;;;;5072950;28;941;-77
2022/07/22 04:34:38;;;;;;;;;;;;;;;;;;5091212;28;1975;-77
2022/07/22 04:37:04;;;;;;;;;;;;;;;;;;5091241;28;785;-76
2022/07/22 04:39:34;;;;;;;;;;;;;;;;;;5073193;28;1198;-77
2022/07/22 04:42:01;;;;;;;;;;;;;;;;;;5072811;28;1310;-77
2022/07/22 04:44:30;;;;;;;;;;;;;;;;;;5073282;28;1506;-77
2022/07/22 04:46:56;;;;;;;;;;;;;;;;;;5073384;28;1686;-76
2022/07/22 04:49:23;;;;;;;;;;;;;;;;;;5072677;28;2043;-76
2022/07/22 04:51:49;;;;;;;;;;;;;;;;;;5072591;28;1351;-77
2022/07/22 04:54:24;;;;;;;;;;;;;;;;;;5072816;28;1973;-76
2022/07/22 04:56:55;;;;;;;;;;;;;;;;;;5073279;28;1638;-76
2022/07/22 04:59:22;;;;;;;;;;;;;;;;;;5072999;28;1352;-77
2022/07/22 05:01:49;;;;;;;;;;;;;;;;;;5072865;28;1195;-77
2022/07/22 05:04:15;;;;;;;;;;;;;;;;;;5072568;28;1594;-76
2022/07/22 05:06:44;;;;;;;;;;;;;;;;;;5072849;28;1223;-77
2022/07/22 05:09:10;;;;;;;;;;;;;;;;;;5072770;28;1477;-75
2022/07/22 05:11:36;;;;;;;;;;;;;;;;;;5072211;28;1254;-75
2022/07/22 05:14:03;;;;;;;;;;;;;;;;;;5072511;28;1977;-75
2022/07/22 05:16:30;;;;;;;;;;;;;;;;;;5072584;28;1306;-75
2022/07/22 05:18:57;;;;;;;;;;;;;;;;;;5069003;28;1477;-75
2022/07/22 05:21:24;;;;;;;;;;;;;;;;;;5052473;28;1211;-75
2022/07/22 05:23:50;;;;;;;;;;;;;;;;;;5063926;28;1415;-74
2022/07/22 05:26:17;;;;;;;;;;;;;;;;;;5068056;28;1239;-76
2022/07/22 05:28:43;;;;;;;;;;;;;;;;;;5063399;28;1438;-76
2022/07/22 05:31:09;;;;;;;;;;;;;;;;;;5071719;28;1384;-76
2022/07/22 05:33:37;;;;;;;;;;;;;;;;;;5073125;28;1965;-76
2022/07/22 05:36:22;;;;;;;;;;;;;;;;;;5076331;28;1359;-76
2022/07/22 05:38:48;;;;;;;;;;;;;;;;;;5076319;28;1414;-76
2022/07/22 05:41:15;;;;;;;;;;;;;;;;;;5075794;28;1622;-77
2022/07/22 05:43:41;;;;;;;;;;;;;;;;;;5075735;28;1453;-77
2022/07/22 05:46:09;;;;;;;;;;;;;;;;;;5072697;28;1582;-78
2022/07/22 05:48:35;;;;;;;;;;;;;;;;;;5061760;28;1397;-77
2022/07/22 05:51:02;;;;;;;;;;;;;;;;;;5062375;28;1489;-79
2022/07/22 05:53:31;;;;;;;;;;;;;;;;;;5075989;28;1914;-79
2022/07/22 05:55:58;;;;;;;;;;;;;;;;;;5072948;28;1406;-78
2022/07/22 05:58:26;;;;;;;;;;;;;;;;;;5067631;28;1624;-79
2022/07/22 06:00:52;;;;;;;;;;;;;;;;;;5074428;28;1450;-78
2022/07/22 06:03:19;;;;;;;;;;;;;;;;;;5075603;28;1475;-79
2022/07/22 06:05:45;;;;;;;;;;;;;;;;;;5074210;28;1489;-77
2022/07/22 06:08:12;;;;;;;;;;;;;;;;;;5058812;28;1416;-78
2022/07/22 06:10:44;;;;;;;;;;;;;;;;;;5076128;28;1338;-78
2022/07/22 06:13:10;;;;;;;;;;;;;;;;;;5073994;28;1733;-78
2022/07/22 06:15:36;;;;;;;;;;;;;;;;;;5075950;28;1925;-78
2022/07/22 06:18:03;;;;;;;;;;;;;;;;;;5073686;28;1566;-78
2022/07/22 06:20:29;;;;;;;;;;;;;;;;;;5073579;28;1495;-79
2022/07/22 06:22:56;;;;;;;;;;;;;;;;;;5068677;28;1399;-77
2022/07/22 06:25:24;;;;;;;;;;;;;;;;;;5064805;28;1450;-77
2022/07/22 06:27:51;;;;;;;;;;;;;;;;;;5071313;28;1368;-79
2022/07/22 06:30:18;;;;;;;;;;;;;;;;;;5074458;28;1476;-78
2022/07/22 06:32:44;;;;;;;;;;;;;;;;;;5090767;28;1790;-76
2022/07/22 06:35:10;;;;;;;;;;;;;;;;;;5075399;28;1910;-78
2022/07/22 06:37:37;;;;;;;;;;;;;;;;;;5074431;28;1419;-79
2022/07/22 06:40:03;;;;;;;;;;;;;;;;;;5066888;28;1190;-78
2022/07/22 06:42:40;;;;;;;;;;;;;;;;;;5062227;28;2288;-78
2022/07/22 06:45:29;;;;;;;;;;;;;;;;;;5075204;28;1402;-79
2022/07/22 06:48:15;;;;;;;;;;;;;;;;;;5090374;28;1377;-78
2022/07/22 06:50:41;;;;;;;;;;;;;;;;;;5062381;28;1413;-76
2022/07/22 06:53:14;;;;;;;;;;;;;;;;;;5071175;28;1474;-77
2022/07/22 06:55:41;;;;;;;;;;;;;;;;;;5072994;28;1977;-77
2022/07/22 06:58:10;;;;;;;;;;;;;;;;;;5068577;28;1441;-78
2022/07/22 07:00:38;;;;;;;;;;;;;;;;;;5081025;28;1419;-79
2022/07/22 07:03:28;;;;;;;;;;;;;;;;;;5054707;28;1583;-78
2022/07/22 07:05:57;;;;;;;;;;;;;;;;;;5054517;28;1407;-77
2022/07/22 07:08:25;;;;;;;;;;;;;;;;;;5054829;28;1677;-79
2022/07/22 07:10:52;;;;;;;;;;;;;;;;;;5054471;28;1301;-77
2022/07/22 07:13:18;;;;;;;;;;;;;;;;;;5059722;28;2338;-78
2022/07/22 07:15:48;;;;;;;;;;;;;;;;;;5074710;28;1906;-78
2022/07/22 07:18:15;;;;;;;;;;;;;;;;;;5073896;28;1584;-75
2022/07/22 07:20:41;;;;;;;;;;;;;;;;;;5079548;28;1760;-75
2022/07/22 07:23:10;;;;;;;;;;;;;;;;;;5071977;28;1365;-77
2022/07/22 07:25:41;;;;;;;;;;;;;;;;;;5073527;28;1438;-75
2022/07/22 07:28:07;;;;;;;;;;;;;;;;;;5074700;28;1215;-75
2022/07/22 07:30:54;;;;;;;;;;;;;;;;;;5074030;28;1322;-76
2022/07/22 07:33:21;;;;;;;;;;;;;;;;;;5073783;28;1350;-76
2022/07/22 07:35:47;;;;;;;;;;;;;;;;;;5073419;28;1913;-76
2022/07/22 07:38:18;;;;;;;;;;;;;;;;;;5073511;28;1201;-76
2022/07/22 07:40:45;;;;;;;;;;;;;;;;;;5073578;28;1443;-76
2022/07/22 07:43:12;;;;;;;;;;;;;;;;;;5073151;28;1400;-76
2022/07/22 07:45:38;;;;;;;;;;;;;;;;;;5073387;28;1342;-77
2022/07/22 07:48:06;;;;;;;;;;;;;;;;;;5091295;28;1059;-76
2022/07/22 07:50:33;;;;;;;;;;;;;;;;;;5073443;28;1275;-76
2022/07/22 07:53:00;;;;;;;;;;;;;;;;;;5072261;28;1341;-76
2022/07/22 07:55:27;;;;;;;;;;;;;;;;;;5064976;28;1906;-79
2022/07/22 07:57:53;;;;;;;;;;;;;;;;;;5064096;28;1306;-77
2022/07/22 08:00:21;;;;;;;;;;;;;;;;;;5078278;28;1343;-76
2022/07/22 08:02:48;;;;;;;;;;;;;;;;;;5071997;28;1506;-76
2022/07/22 08:05:16;;;;;;;;;;;;;;;;;;5072872;28;1192;-76
2022/07/22 08:07:42;;;;;;;;;;;;;;;;;;5073130;28;1197;-76
2022/07/22 08:10:11;;;;;;;;;;;;;;;;;;5072862;28;1452;-75
2022/07/22 08:13:00;;;;;;;;;;;;;;;;;;5090450;28;1434;-76
2022/07/22 08:15:41;;;;;;;;;;;;;;;;;;5055186;28;1906;-77
2022/07/22 08:18:14;;;;;;;;;;;;;;;;;;5072480;28;1498;-76
2022/07/22 08:20:42;;;;;;;;;;;;;;;;;;5073130;28;1300;-75
2022/07/22 08:23:09;;;;;;;;;;;;;;;;;;5072299;28;1552;-76
2022/07/22 08:25:37;;;;;;;;;;;;;;;;;;5073246;28;1381;-77
2022/07/22 08:28:04;;;;;;;;;;;;;;;;;;5072543;28;1183;-80
2022/07/22 08:30:30;;;;;;;;;;;;;;;;;;5073012;28;1440;-78
2022/07/22 08:32:57;;;;;;;;;;;;;;;;;;5068236;28;2032;-76
2022/07/22 08:35:24;;;;;;;;;;;;;;;;;;5072286;28;1973;-77
2022/07/22 08:37:52;;;;;;;;;;;;;;;;;;5090931;28;1204;-77
2022/07/22 08:40:19;;;;;;;;;;;;;;;;;;5072664;28;1002;-78
2022/07/22 08:42:46;;;;;;;;;;;;;;;;;;5070955;28;1422;-76
2022/07/22 08:45:14;;;;;;;;;;;;;;;;;;5069849;28;1536;-76
2022/07/22 08:47:40;;;;;;;;;;;;;;;;;;5065431;28;1438;-76
2022/07/22 08:50:24;;;;;;;;;;;;;;;;;;5082144;28;1459;-75
2022/07/22 08:53:04;;;;;;;;;;;;;;;;;;5071466;28;1411;-76
2022/07/22 08:55:31;;;;;;;;;;;;;;;;;;5064950;28;1975;-76
2022/07/22 08:57:57;;;;;;;;;;;;;;;;;;5066300;28;1266;-77
2022/07/22 09:00:24;;;;;;;;;;;;;;;;;;5070439;28;1510;-77
2022/07/22 09:02:51;;;;;;;;;;;;;;;;;;5058572;28;1333;-76
2022/07/22 09:05:17;;;;;;;;;;;;;;;;;;5055224;28;1521;-77
2022/07/22 09:07:45;;;;;;;;;;;;;;;;;;5087510;28;1430;-76
2022/07/22 09:10:19;;;;;;;;;;;;;;;;;;5075901;28;1600;-75
2022/07/22 09:13:04;;;;;;;;;;;;;;;;;;5084522;28;1418;-76
2022/07/22 09:15:56;;;;;;;;;;;;;;;;;;5090518;28;2664;-76
2022/07/22 09:18:47;;;;;;;;;;;;;;;;;;5092456;28;1160;-77
2022/07/22 09:21:32;;;;;;;;;;;;;;;;;;5094052;28;643;-76
2022/07/22 09:24:26;;;;;;;;;;;;;;;;;;5075858;28;1444;-76
2022/07/22 09:26:55;;;;;;;;;;;;;;;;;;5072316;22;3621;-72
2022/07/22 09:29:46;;;;;;;;;;;;;;;;;;5025987;28;1153;-73
2022/07/22 09:32:16;;;;;;;;;;;;;;;;;;5032503;28;1208;-71
2022/07/22 09:35:02;;;;;;;;;;;;;;;;;;5033393;28;1907;-71
2022/07/22 09:37:30;;;;;;;;;;;;;;;;;;5032455;28;1349;-71
2022/07/22 09:39:59;;;;;;;;;;;;;;;;;;5032650;28;1317;-72
2022/07/22 09:42:30;;;;;;;;;;;;;;;;;;5032142;28;1509;-71
2022/07/22 09:44:56;;;;;;;;;;;;;;;;;;5032069;28;1181;-72
2022/07/22 09:47:30;;;;;;;;;;;;;;;;;;5032152;28;1469;-71
2022/07/22 09:50:15;;;;;;;;;;;;;;;;;;5034045;28;741;-71
2022/07/22 09:53:01;;;;;;;;;;;;;;;;;;5033231;28;1378;-72
2022/07/22 09:55:29;;;;;;;;;;;;;;;;;;5032094;28;1914;-71
2022/07/22 09:57:57;;;;;;;;;;;;;;;;;;5032543;28;1325;-72
2022/07/22 10:00:25;;;;;;;;;;;;;;;;;;5032068;28;982;-72
2022/07/22 10:02:57;;;;;;;;;;;;;;;;;;5031957;28;1512;-72
2022/07/22 10:05:24;;;;;;;;;;;;;;;;;;5031959;28;1638;-72
2022/07/22 10:07:51;;;;;;;;;;;;;;;;;;5032006;28;1449;-71
2022/07/22 10:10:17;;;;;;;;;;;;;;;;;;5032108;28;1196;-72
2022/07/22 10:12:44;;;;;;;;;;;;;;;;;;5031457;28;1189;-72
2022/07/22 10:15:12;;;;;;;;;;;;;;;;;;5050235;28;1971;-72
2022/07/22 10:17:39;;;;;;;;;;;;;;;;;;5058500;28;1603;-71
2022/07/22 10:20:06;;;;;;;;;;;;;;;;;;5058831;28;1455;-71
2022/07/22 10:22:52;;;;;;;;;;;;;;;;;;5055425;28;1352;-72
2022/07/22 10:25:19;;;;;;;;;;;;;;;;;;5063016;28;1552;-72
2022/07/22 10:27:46;;;;;;;;;;;;;;;;;;5071334;28;1447;-72
2022/07/22 10:30:15;;;;;;;;;;;;;;;;;;5056886;28;1410;-72
2022/07/22 10:32:41;;;;;;;;;;;;;;;;;;5064056;28;1224;-72
2022/07/22 10:35:23;;;;;;;;;;;;;;;;;;5051981;28;1917;-71
2022/07/22 10:37:50;;;;;;;;;;;;;;;;;;5059350;28;1483;-71
2022/07/22 10:40:17;;;;;;;;;;;;;;;;;;5051766;28;1585;-72
2022/07/22 10:43:03;;;;;;;;;;;;;;;;;;5060170;28;1184;-71
2022/07/22 10:45:31;;;;;;;;;;;;;;;;;;5057935;28;1414;-72
2022/07/22 10:47:58;;;;;;;;;;;;;;;;;;5058691;28;1416;-71
2022/07/22 10:50:45;;;;;;;;;;;;;;;;;;5058306;28;1494;-71
2022/07/22 10:53:12;;;;;;;;;;;;;;;;;;5052165;28;1507;-73
2022/07/22 10:55:38;;;;;;;;;;;;;;;;;;5064538;28;1910;-72
2022/07/22 10:58:19;;;;;;;;;;;;;;;;;;5052079;28;1250;-73
2022/07/22 11:00:48;;;;;;;;;;;;;;;;;;5036015;28;1492;-72
2022/07/22 11:03:15;;;;;;;;;;;;;;;;;;5054568;28;1440;-72
2022/07/22 11:05:41;;;;;;;;;;;;;;;;;;5057631;28;2016;-73
2022/07/22 11:08:09;;;;;;;;;;;;;;;;;;5060208;28;1633;-72
2022/07/22 11:10:35;;;;;;;;;;;;;;;;;;5071567;28;1063;-72
2022/07/22 11:13:02;;;;;;;;;;;;;;;;;;5071199;28;838;-72
2022/07/22 11:15:28;;;;;;;;;;;;;;;;;;5051759;28;1971;-72
2022/07/22 11:17:58;;;;;;;;;;;;;;;;;;5051538;28;910;-72
2022/07/22 11:20:24;;;;;;;;;;;;;;;;;;5051420;28;893;-72
2022/07/22 11:22:50;;;;;;;;;;;;;;;;;;5051538;28;1134;-72
2022/07/22 11:25:16;;;;;;;;;;;;;;;;;;5051146;28;1349;-72
2022/07/22 11:27:48;;;;;;;;;;;;;;;;;;5048877;28;1157;-73
2022/07/22 11:30:14;;;;;;;;;;;;;;;;;;5051613;28;1128;-73
2022/07/22 11:32:42;;;;;;;;;;;;;;;;;;5049732;28;1147;-73
2022/07/22 11:35:11;;;;;;;;;;;;;;;;;;5051607;28;1122;-74
2022/07/22 11:37:37;;;;;;;;;;;;;;;;;;5066328;28;1977;-73
2022/07/22 11:40:05;;;;;;;;;;;;;;;;;;5033717;28;1055;-72
2022/07/22 11:42:31;;;;;;;;;;;;;;;;;;5046475;28;1222;-73
2022/07/22 11:44:57;;;;;;;;;;;;;;;;;;5031037;28;944;-72
2022/07/22 11:47:23;;;;;;;;;;;;;;;;;;5032878;28;1322;-72
2022/07/22 11:49:49;;;;;;;;;;;;;;;;;;5031009;28;1114;-73
2022/07/22 11:52:17;;;;;;;;;;;;;;;;;;5030974;28;940;-72
2022/07/22 11:54:44;;;;;;;;;;;;;;;;;;5038766;28;1071;-72
2022/07/22 11:57:10;;;;;;;;;;;;;;;;;;5050339;28;1961;-73
2022/07/22 11:59:37;;;;;;;;;;;;;;;;;;5051247;28;1075;-71
2022/07/22 12:02:04;;;;;;;;;;;;;;;;;;5050399;28;1122;-73
2022/07/22 12:04:30;;;;;;;;;;;;;;;;;;5050771;28;790;-72
2022/07/22 12:06:58;;;;;;;;;;;;;;;;;;5050895;28;1290;-72
2022/07/22 12:09:26;;;;;;;;;;;;;;;;;;5050837;28;1040;-73
2022/07/22 12:11:52;;;;;;;;;;;;;;;;;;5048974;28;1255;-72
2022/07/22 12:14:20;;;;;;;;;;;;;;;;;;5050573;28;1158;-72
2022/07/22 12:16:53;;;;;;;;;;;;;;;;;;5050404;28;1977;-72
2022/07/22 12:19:19;;;;;;;;;;;;;;;;;;5050838;28;1127;-72
2022/07/22 12:21:50;;;;;;;;;;;;;;;;;;5050250;28;799;-73
2022/07/22 12:24:17;;;;;;;;;;;;;;;;;;5050221;28;1494;-72
2022/07/22 12:26:45;;;;;;;;;;;;;;;;;;5050300;28;1432;-72
2022/07/22 12:29:18;;;;;;;;;;;;;;;;;;5050696;28;1075;-72
2022/07/22 12:31:45;;;;;;;;;;;;;;;;;;5048963;28;897;-72
2022/07/22 12:34:11;;;;;;;;;;;;;;;;;;5049342;28;1115;-72
2022/07/22 12:36:37;;;;;;;;;;;;;;;;;;5050300;28;1914;-72
2022/07/22 12:39:11;;;;;;;;;;;;;;;;;;5050200;28;1005;-71
2022/07/22 12:41:44;;;;;;;;;;;;;;;;;;5050029;28;1059;-72
2022/07/22 12:44:16;;;;;;;;;;;;;;;;;;5050161;28;782;-73
2022/07/22 12:46:45;;;;;;;;;;;;;;;;;;5049893;28;1387;-73
2022/07/22 12:49:11;;;;;;;;;;;;;;;;;;5050415;28;1015;-72
2022/07/22 12:51:37;;;;;;;;;;;;;;;;;;5049639;28;1071;-71
2022/07/22 12:54:03;;;;;;;;;;;;;;;;;;5050279;28;858;-72
2022/07/22 12:56:30;;;;;;;;;;;;;;;;;;5049794;28;1910;-72
2022/07/22 12:58:57;;;;;;;;;;;;;;;;;;5050219;28;1071;-72
2022/07/22 13:01:24;;;;;;;;;;;;;;;;;;5049855;28;842;-71
2022/07/22 13:03:50;;;;;;;;;;;;;;;;;;5048905;28;1270;-72
2022/07/22 13:06:17;;;;;;;;;;;;;;;;;;5050289;28;1316;-72
2022/07/22 13:08:43;;;;;;;;;;;;;;;;;;5050056;28;941;-72
2022/07/22 13:11:09;;;;;;;;;;;;;;;;;;5050087;28;1079;-72
2022/07/22 13:13:35;;;;;;;;;;;;;;;;;;5046390;28;1280;-72
2022/07/22 13:16:01;;;;;;;;;;;;;;;;;;5029859;28;1918;-73
2022/07/22 13:18:29;;;;;;;;;;;;;;;;;;5030335;28;1080;-73
2022/07/22 13:20:55;;;;;;;;;;;;;;;;;;5030120;28;964;-72
2022/07/22 13:23:22;;;;;;;;;;;;;;;;;;5030096;28;1146;-73
2022/07/22 13:25:48;;;;;;;;;;;;;;;;;;5029846;28;1339;-73
2022/07/22 13:28:15;;;;;;;;;;;;;;;;;;5030071;28;1063;-74
2022/07/22 13:30:41;;;;;;;;;;;;;;;;;;5028458;28;1240;-73
2022/07/22 13:33:07;;;;;;;;;;;;;;;;;;5028271;28;1271;-73
2022/07/22 13:35:34;;;;;;;;;;;;;;;;;;5029312;28;1416;-72
2022/07/22 13:38:02;;;;;;;;;;;;;;;;;;5029482;28;1926;-74
2022/07/22 13:40:28;;;;;;;;;;;;;;;;;;5029872;28;995;-72
2022/07/22 13:42:55;;;;;;;;;;;;;;;;;;5041153;28;1635;-72
2022/07/22 13:45:21;;;;;;;;;;;;;;;;;;5052955;28;1640;-71
2022/07/22 13:47:47;;;;;;;;;;;;;;;;;;5053886;28;1424;-71
2022/07/22 13:50:13;;;;;;;;;;;;;;;;;;5060179;28;1185;-71
2022/07/22 13:52:41;;;;;;;;;;;;;;;;;;5068536;28;1394;-74
2022/07/22 13:55:07;;;;;;;;;;;;;;;;;;5063685;28;994;-73
2022/07/22 13:57:34;;;;;;;;;;;;;;;;;;5071882;28;1993;-73
2022/07/22 14:00:00;;;;;;;;;;;;;;;;;;5073832;28;842;-74
2022/07/22 14:02:26;;;;;;;;;;;;;;;;;;5055967;28;1781;-73
2022/07/22 14:04:52;;;;;;;;;;;;;;;;;;5048993;28;1590;-74
2022/07/22 14:07:19;;;;;;;;;;;;;;;;;;5061179;28;1591;-73
2022/07/22 14:09:46;;;;;;;;;;;;;;;;;;5072900;28;868;-73
2022/07/22 14:12:12;;;;;;;;;;;;;;;;;;5054680;28;1370;-73
2022/07/22 14:14:39;;;;;;;;;;;;;;;;;;5044458;28;1156;-73
2022/07/22 14:17:05;;;;;;;;;;;;;;;;;;5052666;28;1910;-72
2022/07/22 14:19:31;;;;;;;;;;;;;;;;;;5052872;28;1403;-73
2022/07/22 14:21:57;;;;;;;;;;;;;;;;;;5053527;28;1545;-73
2022/07/22 14:24:24;;;;;;;;;;;;;;;;;;5064566;28;1152;-73
2022/07/22 14:26:52;;;;;;;;;;;;;;;;;;5072709;28;1321;-73
2022/07/22 14:29:18;;;;;;;;;;;;;;;;;;5072837;28;1135;-73
2022/07/22 14:31:46;;;;;;;;;;;;;;;;;;5068394;28;1746;-73
2022/07/22 14:34:12;;;;;;;;;;;;;;;;;;5060774;28;1667;-73
2022/07/22 14:36:38;;;;;;;;;;;;;;;;;;5060788;28;1918;-72
2022/07/22 14:39:04;;;;;;;;;;;;;;;;;;5070662;28;1149;-73
2022/07/22 14:41:30;;;;;;;;;;;;;;;;;;5072156;28;1007;-73
2022/07/22 14:43:58;;;;;;;;;;;;;;;;;;5061632;28;1791;-74
2022/07/22 14:46:24;;;;;;;;;;;;;;;;;;5055235;28;1880;-73
2022/07/22 14:48:52;;;;;;;;;;;;;;;;;;5048407;28;1181;-74
2022/07/22 14:51:19;;;;;;;;;;;;;;;;;;5050076;28;1408;-73
2022/07/22 14:53:45;;;;;;;;;;;;;;;;;;5056160;28;1782;-73
2022/07/22 14:56:11;;;;;;;;;;;;;;;;;;5063408;28;1533;-74
2022/07/22 14:58:37;;;;;;;;;;;;;;;;;;5066543;28;1976;-74
2022/07/22 15:01:05;;;;;;;;;;;;;;;;;;5073130;28;1031;-73
2022/07/22 15:03:31;;;;;;;;;;;;;;;;;;5069405;28;1548;-74
2022/07/22 15:05:57;;;;;;;;;;;;;;;;;;5048026;28;1625;-74
2022/07/22 15:08:23;;;;;;;;;;;;;;;;;;5060132;28;1517;-74
2022/07/22 15:10:49;;;;;;;;;;;;;;;;;;5067666;28;1153;-74
2022/07/22 15:13:16;;;;;;;;;;;;;;;;;;5062791;28;1438;-74
2022/07/22 15:15:42;;;;;;;;;;;;;;;;;;5050720;28;1397;-73
2022/07/22 15:18:10;;;;;;;;;;;;;;;;;;5056835;28;1922;-73
2022/07/22 15:20:37;;;;;;;;;;;;;;;;;;5042400;28;1445;-73
2022/07/22 15:23:03;;;;;;;;;;;;;;;;;;5051199;28;1244;-74
2022/07/22 15:25:29;;;;;;;;;;;;;;;;;;5054114;28;1816;-73
2022/07/22 15:27:55;;;;;;;;;;;;;;;;;;5061788;28;1681;-73
2022/07/22 15:30:22;;;;;;;;;;;;;;;;;;5050468;28;1392;-73
2022/07/22 15:32:48;;;;;;;;;;;;;;;;;;5050412;28;1714;-72
2022/07/22 15:35:16;;;;;;;;;;;;;;;;;;5058353;28;1597;-72
2022/07/22 15:37:42;;;;;;;;;;;;;;;;;;5059699;28;1977;-72
2022/07/22 15:40:09;;;;;;;;;;;;;;;;;;5060108;28;1778;-72
2022/07/22 15:42:36;;;;;;;;;;;;;;;;;;5069931;28;1051;-72
2022/07/22 15:45:02;;;;;;;;;;;;;;;;;;5061098;28;1914;-72
2022/07/22 15:47:28;;;;;;;;;;;;;;;;;;5060066;28;1649;-72
2022/07/22 15:49:54;;;;;;;;;;;;;;;;;;5059634;28;1620;-73
2022/07/22 15:52:22;;;;;;;;;;;;;;;;;;5057172;28;2003;-73
2022/07/22 15:54:48;;;;;;;;;;;;;;;;;;5066377;28;1216;-72
2022/07/22 15:59:59;;;;;;;;;;;;;;;;;;5058729;28;1541;-73
2022/07/22 16:02:25;;;;;;;;;;;;;;;;;;5058464;28;1938;-73
2022/07/22 16:04:51;;;;;;;;;;;;;;;;;;5066854;28;1165;-72
2022/07/22 16:07:17;;;;;;;;;;;;;;;;;;5059635;28;1926;-72
2022/07/22 16:09:45;;;;;;;;;;;;;;;;;;5049655;28;1927;-72
2022/07/22 16:12:11;;;;;;;;;;;;;;;;;;5060701;28;1307;-72
2022/07/22 16:14:37;;;;;;;;;;;;;;;;;;5057927;28;1256;-72
2022/07/22 16:17:04;;;;;;;;;;;;;;;;;;5050927;28;1954;-72
2022/07/22 16:19:30;;;;;;;;;;;;;;;;;;5058183;28;1714;-72
2022/07/22 16:21:56;;;;;;;;;;;;;;;;;;5066214;28;1808;-71
2022/07/22 16:24:22;;;;;;;;;;;;;;;;;;5068898;28;1662;-72
2022/07/22 16:26:50;;;;;;;;;;;;;;;;;;5058413;28;1680;-71
2022/07/22 16:29:16;;;;;;;;;;;;;;;;;;5050381;28;1634;-71
2022/07/22 16:31:42;;;;;;;;;;;;;;;;;;5057276;28;1583;-72
2022/07/22 16:34:08;;;;;;;;;;;;;;;;;;5059681;28;1113;-72
2022/07/22 16:36:36;;;;;;;;;;;;;;;;;;5059306;28;1957;-72
2022/07/22 16:39:02;;;;;;;;;;;;;;;;;;5050404;28;1922;-72
2022/07/22 16:41:28;;;;;;;;;;;;;;;;;;5054072;28;1887;-72
2022/07/22 16:43:56;;;;;;;;;;;;;;;;;;5062628;28;1680;-71
2022/07/22 16:46:22;;;;;;;;;;;;;;;;;;5042911;28;1387;-72
2022/07/22 16:48:48;;;;;;;;;;;;;;;;;;5068472;28;830;-71
2022/07/22 16:51:14;;;;;;;;;;;;;;;;;;5067253;28;1294;-71
2022/07/22 16:53:40;;;;;;;;;;;;;;;;;;5047663;28;1685;-71
2022/07/22 16:56:07;;;;;;;;;;;;;;;;;;5065187;28;1367;-72
2022/07/22 16:58:33;;;;;;;;;;;;;;;;;;5066460;28;1984;-71
2022/07/22 17:01:00;;;;;;;;;;;;;;;;;;5058058;28;1525;-72
2022/07/22 17:03:26;;;;;;;;;;;;;;;;;;5044122;28;2033;-72
2022/07/22 17:05:53;;;;;;;;;;;;;;;;;;5048084;28;1667;-72
2022/07/22 17:08:19;;;;;;;;;;;;;;;;;;5061635;28;1165;-72
2022/07/22 17:10:45;;;;;;;;;;;;;;;;;;5070382;28;1107;-72
2022/07/22 17:13:11;;;;;;;;;;;;;;;;;;5056479;28;1821;-72